Time;durP1;ratioP1;P1;durP2;ratioP2;P2;SDS_P1;SDS_P2;PMS_P1;PMS_P2;Temp;Humidity;BMP_temperature;BMP_pressure;BME280_temperature;BME280_humidity;BME280_pressure;Samples;Min_cycle;Max_cycle;Signal;HPM_P1;HPM_P2
2021/09/09 00:00:31;;;;;;;6.90;5.80;;;26.10;99.90;;;;;;5109003;28;20383;-76
2021/09/09 00:02:56;;;;;;;7.38;6.10;;;26.10;99.90;;;;;;5109749;28;20028;-77
2021/09/09 00:05:22;;;;;;;7.35;6.13;;;26.10;99.90;;;;;;5092867;28;20036;-77
2021/09/09 00:07:48;;;;;;;7.47;5.55;;;26.10;99.90;;;;;;5101215;28;20109;-75
2021/09/09 00:10:14;;;;;;;6.90;5.60;;;26.10;99.90;;;;;;5090667;28;20647;-75
2021/09/09 00:12:40;;;;;;;8.15;6.15;;;26.10;99.90;;;;;;5100674;28;20499;-72
2021/09/09 00:15:06;;;;;;;7.57;5.85;;;26.10;99.90;;;;;;5091044;28;20028;-69
2021/09/09 00:17:32;;;;;;;7.50;5.68;;;26.10;99.90;;;;;;5091936;28;20099;-73
2021/09/09 00:19:57;;;;;;;7.75;5.85;;;26.10;99.90;;;;;;5090905;28;20539;-75
2021/09/09 00:22:23;;;;;;;6.55;5.45;;;26.10;99.90;;;;;;5090589;28;20488;-74
2021/09/09 00:24:48;;;;;;;7.65;5.97;;;26.10;99.90;;;;;;5077815;28;20106;-76
2021/09/09 00:27:14;;;;;;;6.75;6.05;;;26.10;99.90;;;;;;5110633;28;20463;-75
2021/09/09 00:29:40;;;;;;;7.10;6.25;;;26.10;99.90;;;;;;5114429;28;20028;-76
2021/09/09 00:32:06;;;;;;;6.50;5.80;;;26.10;99.90;;;;;;5095409;28;20394;-76
2021/09/09 00:34:31;;;;;;;5.93;5.30;;;26.10;99.90;;;;;;5094184;28;20039;-76
2021/09/09 00:36:57;;;;;;;7.10;5.80;;;26.10;99.90;;;;;;5106446;28;20732;-76
2021/09/09 00:39:22;;;;;;;8.40;5.32;;;26.10;99.90;;;;;;5094082;28;20059;-76
2021/09/09 00:41:48;;;;;;;8.38;5.82;;;26.10;99.90;;;;;;5094495;28;20016;-76
2021/09/09 00:44:25;;;;;;;9.18;5.68;;;26.10;99.90;;;;;;5107251;28;20035;-76
2021/09/09 00:47:02;;;;;;;6.93;5.63;;;26.10;99.90;;;;;;5113772;28;20111;-76
2021/09/09 00:49:29;;;;;;;6.70;5.68;;;26.10;99.90;;;;;;5113958;28;20034;-76
2021/09/09 00:51:55;;;;;;;7.22;5.60;;;26.10;99.90;;;;;;5103834;28;20035;-76
2021/09/09 00:54:20;;;;;;;8.20;5.13;;;26.10;99.90;;;;;;5109154;28;20032;-75
2021/09/09 00:56:49;;;;;;;6.45;5.25;;;26.10;99.90;;;;;;5111956;28;20080;-75
2021/09/09 00:59:14;;;;;;;11.23;5.57;;;26.10;99.90;;;;;;5094459;28;20122;-74
2021/09/09 01:01:41;;;;;;;6.03;5.00;;;26.10;99.90;;;;;;5075643;28;20492;-76
2021/09/09 01:04:07;;;;;;;6.00;5.40;;;26.10;99.90;;;;;;5109350;28;20031;-66
2021/09/09 01:06:33;;;;;;;6.75;5.47;;;26.10;99.90;;;;;;5101778;28;20028;-75
2021/09/09 01:09:00;;;;;;;5.80;5.20;;;26.10;99.90;;;;;;5093523;28;20024;-75
2021/09/09 01:11:25;;;;;;;7.10;5.40;;;26.10;99.90;;;;;;5106764;28;20061;-76
2021/09/09 01:13:52;;;;;;;6.00;5.05;;;26.10;99.90;;;;;;5101893;28;20140;-75
2021/09/09 01:16:19;;;;;;;7.15;5.38;;;26.10;99.90;;;;;;5102424;28;20035;-76
2021/09/09 01:18:45;;;;;;;8.25;5.70;;;26.00;99.90;;;;;;5113460;28;20463;-76
2021/09/09 01:21:10;;;;;;;6.50;5.82;;;26.10;99.90;;;;;;5113732;28;20026;-76
2021/09/09 01:23:37;;;;;;;6.72;5.28;;;26.10;99.90;;;;;;5112715;28;20505;-77
2021/09/09 01:26:04;;;;;;;7.15;5.35;;;26.00;99.90;;;;;;5102844;28;20553;-77
2021/09/09 01:28:30;;;;;;;6.47;5.60;;;26.00;99.90;;;;;;5093117;28;20467;-77
2021/09/09 01:30:56;;;;;;;6.32;4.97;;;26.10;99.90;;;;;;5074915;28;20044;-77
2021/09/09 01:33:21;;;;;;;7.47;5.47;;;26.10;99.90;;;;;;5100397;28;20111;-76
2021/09/09 01:35:47;;;;;;;5.55;5.05;;;26.10;99.90;;;;;;5106315;28;20050;-76
2021/09/09 01:38:23;;;;;;;6.68;5.60;;;26.10;99.90;;;;;;5084228;28;20074;-76
2021/09/09 01:40:49;;;;;;;6.28;5.57;;;26.00;99.90;;;;;;5092935;28;20020;-78
2021/09/09 01:43:15;;;;;;;5.90;5.30;;;26.10;99.90;;;;;;5094017;28;20039;-77
2021/09/09 01:45:42;;;;;;;9.30;5.65;;;26.10;99.90;;;;;;5112871;28;20383;-77
2021/09/09 01:48:08;;;;;;;6.72;4.95;;;26.10;99.90;;;;;;5102653;28;20106;-73
2021/09/09 01:50:35;;;;;;;6.30;4.82;;;26.00;99.90;;;;;;5093047;28;20031;-77
2021/09/09 01:53:00;;;;;;;8.23;5.25;;;26.00;99.90;;;;;;5092712;28;20040;-76
2021/09/09 01:55:26;;;;;;;6.78;5.20;;;26.00;99.90;;;;;;5095048;28;20506;-77
2021/09/09 01:57:52;;;;;;;5.75;5.10;;;26.00;99.90;;;;;;5074592;28;20384;-76
2021/09/09 02:00:17;;;;;;;6.53;5.05;;;26.00;99.90;;;;;;5092241;28;20070;-77
2021/09/09 02:02:43;;;;;;;5.82;4.88;;;26.00;99.90;;;;;;5093639;28;20028;-77
2021/09/09 02:05:11;;;;;;;4.88;4.28;;;26.00;99.90;;;;;;5092415;28;20032;-76
2021/09/09 02:07:37;;;;;;;6.43;5.80;;;26.00;99.90;;;;;;5104816;28;20248;-72
2021/09/09 02:10:04;;;;;;;5.50;4.70;;;26.00;99.90;;;;;;5092918;28;20531;-74
2021/09/09 02:12:29;;;;;;;5.40;4.90;;;26.00;99.90;;;;;;5100065;28;20031;-78
2021/09/09 02:14:55;;;;;;;7.20;4.93;;;26.00;99.90;;;;;;5102196;28;20035;-78
2021/09/09 02:17:21;;;;;;;8.23;4.93;;;25.90;99.90;;;;;;5111795;28;20019;-78
2021/09/09 02:19:46;;;;;;;6.72;5.10;;;26.00;99.90;;;;;;5112633;28;20031;-78
2021/09/09 02:22:13;;;;;;;10.90;5.30;;;25.90;99.90;;;;;;5112034;28;20422;-76
2021/09/09 02:24:44;;;;;;;5.85;5.25;;;25.90;99.90;;;;;;5092300;28;20077;-78
2021/09/09 02:27:12;;;;;;;6.85;5.43;;;26.00;99.90;;;;;;5091780;28;20119;-78
2021/09/09 02:29:38;;;;;;;7.35;5.07;;;25.90;99.90;;;;;;5101157;28;20059;-76
2021/09/09 02:32:04;;;;;;;6.25;5.43;;;25.90;99.90;;;;;;5112743;28;20454;-78
2021/09/09 02:34:29;;;;;;;7.13;5.28;;;25.90;99.90;;;;;;5112168;28;20028;-78
2021/09/09 02:36:55;;;;;;;5.00;4.50;;;25.90;99.90;;;;;;5102876;28;20476;-77
2021/09/09 02:39:21;;;;;;;7.00;5.05;;;25.90;99.90;;;;;;5094957;28;20028;-78
2021/09/09 02:41:46;;;;;;;5.03;4.50;;;25.90;99.90;;;;;;5091904;28;20016;-77
2021/09/09 02:44:12;;;;;;;5.25;4.75;;;25.90;99.90;;;;;;5095468;28;20467;-78
2021/09/09 02:46:37;;;;;;;5.70;5.10;;;25.90;99.90;;;;;;5094972;28;20024;-76
2021/09/09 02:49:03;;;;;;;5.68;5.07;;;25.90;99.90;;;;;;5092049;28;20020;-78
2021/09/09 02:51:29;;;;;;;6.25;5.25;;;25.90;99.90;;;;;;5086570;28;20028;-78
2021/09/09 02:53:55;;;;;;;5.88;5.20;;;25.90;99.90;;;;;;5109602;28;20038;-78
2021/09/09 02:56:20;;;;;;;5.95;5.35;;;25.90;99.90;;;;;;5098343;28;20145;-77
2021/09/09 02:58:46;;;;;;;7.50;5.10;;;25.90;99.90;;;;;;5112164;28;20069;-77
2021/09/09 03:01:12;;;;;;;5.68;4.88;;;25.90;99.90;;;;;;5111640;28;20031;-77
2021/09/09 03:03:38;;;;;;;5.65;5.15;;;25.90;99.90;;;;;;5111025;28;20019;-78
2021/09/09 03:06:04;;;;;;;6.63;5.05;;;25.90;99.90;;;;;;5111069;28;20028;-75
2021/09/09 03:08:30;;;;;;;5.90;4.88;;;25.90;99.90;;;;;;5111388;28;20425;-76
2021/09/09 03:10:55;;;;;;;6.05;4.78;;;25.90;99.90;;;;;;5093903;28;20026;-77
2021/09/09 03:13:21;;;;;;;7.07;5.13;;;25.90;99.90;;;;;;5096075;28;20024;-75
2021/09/09 03:15:46;;;;;;;6.88;5.28;;;25.80;99.90;;;;;;5110748;28;20080;-76
2021/09/09 03:18:12;;;;;;;5.57;4.85;;;25.90;99.90;;;;;;5111114;28;20024;-75
2021/09/09 03:20:38;;;;;;;5.97;5.03;;;25.90;99.90;;;;;;5111815;28;20028;-75
2021/09/09 03:23:03;;;;;;;6.55;4.78;;;25.80;99.90;;;;;;5111688;28;20034;-74
2021/09/09 03:25:29;;;;;;;6.90;5.07;;;25.90;99.90;;;;;;5110923;28;20552;-72
2021/09/09 03:27:54;;;;;;;10.23;5.40;;;25.80;99.90;;;;;;5111777;28;20027;-75
2021/09/09 03:30:20;;;;;;;6.75;4.90;;;25.80;99.90;;;;;;5111031;28;20375;-75
2021/09/09 03:32:46;;;;;;;5.63;5.00;;;25.80;99.90;;;;;;5111158;28;20035;-75
2021/09/09 03:35:11;;;;;;;6.90;5.30;;;25.80;99.90;;;;;;5107338;28;20028;-75
2021/09/09 03:37:37;;;;;;;4.97;4.45;;;25.80;99.90;;;;;;5091141;28;20023;-72
2021/09/09 03:40:03;;;;;;;5.55;4.90;;;25.80;99.90;;;;;;5091441;28;20545;-74
2021/09/09 03:42:29;;;;;;;5.60;5.03;;;25.80;99.90;;;;;;5090846;28;20099;-74
2021/09/09 03:44:54;;;;;;;5.38;4.88;;;25.80;99.90;;;;;;5091247;28;20100;-73
2021/09/09 03:47:20;;;;;;;5.53;4.80;;;25.80;99.90;;;;;;5090973;28;20095;-72
2021/09/09 03:49:46;;;;;;;5.43;4.82;;;25.80;99.90;;;;;;5091111;28;20059;-75
2021/09/09 03:52:11;;;;;;;6.22;5.35;;;25.80;99.90;;;;;;5090718;28;20035;-73
2021/09/09 03:54:37;;;;;;;6.45;5.38;;;25.80;99.90;;;;;;5092086;28;20050;-68
2021/09/09 03:57:03;;;;;;;6.15;4.90;;;25.70;99.90;;;;;;5091224;28;20028;-75
2021/09/09 03:59:28;;;;;;;5.80;5.20;;;25.80;99.90;;;;;;5090850;28;20107;-75
2021/09/09 04:01:54;;;;;;;5.95;5.28;;;25.80;99.90;;;;;;5091463;28;20081;-75
2021/09/09 04:04:20;;;;;;;5.80;4.97;;;25.70;99.90;;;;;;5108253;28;20027;-74
2021/09/09 04:06:45;;;;;;;6.97;5.10;;;25.70;99.90;;;;;;5115680;28;20050;-74
2021/09/09 04:09:11;;;;;;;6.07;5.13;;;25.70;99.90;;;;;;5112789;28;20027;-75
2021/09/09 04:11:37;;;;;;;5.63;5.03;;;25.70;99.90;;;;;;5094737;28;20035;-67
2021/09/09 04:14:03;;;;;;;5.47;4.82;;;25.70;99.90;;;;;;5096417;28;20132;-74
2021/09/09 04:16:29;;;;;;;8.13;5.00;;;25.70;99.90;;;;;;5114782;28;20538;-74
2021/09/09 04:18:54;;;;;;;6.35;5.05;;;25.70;99.90;;;;;;5114613;28;20063;-75
2021/09/09 04:21:20;;;;;;;5.75;5.00;;;25.70;99.90;;;;;;5114831;28;20016;-75
2021/09/09 04:23:46;;;;;;;5.35;4.80;;;25.70;99.90;;;;;;5113266;28;20032;-74
2021/09/09 04:26:11;;;;;;;4.95;4.45;;;25.70;99.90;;;;;;5097712;28;20032;-74
2021/09/09 04:28:37;;;;;;;6.78;5.22;;;25.70;99.90;;;;;;5094643;28;20020;-67
2021/09/09 04:31:02;;;;;;;6.07;5.20;;;25.70;99.90;;;;;;5094455;28;20051;-72
2021/09/09 04:33:28;;;;;;;6.32;5.05;;;25.70;99.90;;;;;;5099569;28;20039;-72
2021/09/09 04:35:54;;;;;;;8.20;5.28;;;25.70;99.90;;;;;;5114326;28;20110;-71
2021/09/09 04:38:19;;;;;;;6.80;4.60;;;25.70;99.90;;;;;;5114150;28;20020;-73
2021/09/09 04:40:45;;;;;;;5.13;4.63;;;25.70;99.90;;;;;;5106761;28;20047;-71
2021/09/09 04:43:11;;;;;;;5.43;4.65;;;25.70;99.90;;;;;;5114250;28;20023;-73
2021/09/09 04:45:36;;;;;;;6.15;4.80;;;25.70;99.90;;;;;;5097239;28;20073;-74
2021/09/09 04:48:02;;;;;;;8.43;5.10;;;25.70;99.90;;;;;;5094312;28;20483;-73
2021/09/09 04:50:28;;;;;;;5.82;4.75;;;25.70;99.90;;;;;;5093524;28;20036;-74
2021/09/09 04:52:53;;;;;;;7.35;5.18;;;25.70;99.90;;;;;;5094066;28;20068;-74
2021/09/09 04:55:19;;;;;;;7.03;5.30;;;25.70;99.90;;;;;;5100146;28;20388;-74
2021/09/09 04:57:45;;;;;;;7.10;5.22;;;25.70;99.90;;;;;;5100553;28;20028;-72
2021/09/09 05:00:11;;;;;;;7.47;4.90;;;25.70;99.90;;;;;;5094686;28;20098;-74
2021/09/09 05:02:36;;;;;;;5.47;4.85;;;25.70;99.90;;;;;;5094085;28;20032;-72
2021/09/09 05:05:03;;;;;;;7.15;5.03;;;25.70;99.90;;;;;;5098641;28;20046;-70
2021/09/09 05:07:29;;;;;;;6.43;4.10;;;25.70;99.90;;;;;;5093249;28;20016;-72
2021/09/09 05:09:54;;;;;;;6.18;4.50;;;25.70;99.90;;;;;;5093785;28;20368;-71
2021/09/09 05:12:20;;;;;;;11.60;4.85;;;25.60;99.90;;;;;;5097770;28;20016;-66
2021/09/09 05:14:46;;;;;;;6.57;4.45;;;25.70;99.90;;;;;;5095285;28;20032;-68
2021/09/09 05:17:11;;;;;;;5.40;4.88;;;25.60;99.90;;;;;;5112583;28;20024;-69
2021/09/09 05:19:37;;;;;;;9.70;5.95;;;25.60;99.90;;;;;;5114079;28;20055;-68
2021/09/09 05:22:03;;;;;;;11.20;7.88;;;25.60;99.90;;;;;;5111413;28;20019;-67
2021/09/09 05:24:28;;;;;;;13.02;8.48;;;25.50;99.90;;;;;;5101738;28;20115;-68
2021/09/09 05:26:54;;;;;;;10.90;9.07;;;25.50;99.90;;;;;;5095936;28;20024;-67
2021/09/09 05:29:22;;;;;;;13.48;9.07;;;25.30;99.90;;;;;;5092793;28;20024;-67
2021/09/09 05:31:48;;;;;;;12.50;8.90;;;25.20;99.90;;;;;;5092745;28;20424;-68
2021/09/09 05:34:14;;;;;;;12.57;9.18;;;25.20;99.90;;;;;;5093038;28;20082;-67
2021/09/09 05:36:40;;;;;;;13.02;9.25;;;25.20;99.90;;;;;;5092978;28;20435;-67
2021/09/09 05:39:05;;;;;;;15.43;10.30;;;25.10;99.90;;;;;;5093067;28;20533;-71
2021/09/09 05:41:31;;;;;;;12.43;9.38;;;25.10;99.90;;;;;;5111404;28;20024;-70
2021/09/09 05:43:57;;;;;;;11.98;9.07;;;25.10;99.90;;;;;;5095902;28;20020;-70
2021/09/09 05:46:22;;;;;;;13.10;9.50;;;25.10;99.90;;;;;;5113005;28;20027;-70
2021/09/09 05:48:48;;;;;;;15.13;9.25;;;25.00;99.90;;;;;;5110165;28;20099;-70
2021/09/09 05:51:14;;;;;;;15.02;10.25;;;24.90;99.90;;;;;;5113128;28;20035;-69
2021/09/09 05:53:39;;;;;;;12.32;9.05;;;25.00;99.90;;;;;;5110731;28;20114;-69
2021/09/09 05:56:05;;;;;;;13.93;10.80;;;24.90;99.90;;;;;;5103434;28;20068;-68
2021/09/09 05:58:30;;;;;;;12.93;9.65;;;24.90;99.90;;;;;;5096181;28;20533;-69
2021/09/09 06:00:56;;;;;;;13.75;9.30;;;24.80;99.90;;;;;;5095704;28;20200;-69
2021/09/09 06:03:25;;;;;;;12.45;10.32;;;24.80;99.90;;;;;;5112247;28;20153;-69
2021/09/09 06:05:53;;;;;;;12.77;10.15;;;24.80;99.90;;;;;;5105659;28;20020;-71
2021/09/09 06:08:19;;;;;;;14.35;10.40;;;24.70;99.90;;;;;;5092315;28;20497;-71
2021/09/09 06:10:45;;;;;;;17.27;10.10;;;24.70;99.90;;;;;;5098216;28;20035;-70
2021/09/09 06:13:11;;;;;;;12.23;9.93;;;24.70;99.90;;;;;;5098900;28;20042;-69
2021/09/09 06:15:37;;;;;;;13.43;10.45;;;24.60;99.90;;;;;;5097367;28;20031;-68
2021/09/09 06:18:03;;;;;;;12.93;9.75;;;24.60;99.90;;;;;;5106074;28;20039;-70
2021/09/09 06:20:28;;;;;;;11.75;9.38;;;24.60;99.90;;;;;;5092047;28;20028;-68
2021/09/09 06:22:54;;;;;;;14.38;8.68;;;24.60;99.90;;;;;;5112418;28;20676;-69
2021/09/09 06:25:20;;;;;;;12.32;7.72;;;24.50;99.90;;;;;;5101068;28;20052;-68
2021/09/09 06:27:45;;;;;;;10.88;8.10;;;24.50;99.90;;;;;;5101059;28;20036;-69
2021/09/09 06:30:12;;;;;;;11.18;7.70;;;24.50;99.90;;;;;;5094872;28;20030;-69
2021/09/09 06:32:37;;;;;;;8.82;7.63;;;24.50;99.90;;;;;;5092154;28;20023;-69
2021/09/09 06:35:03;;;;;;;8.27;6.68;;;24.50;99.90;;;;;;5090658;28;20095;-69
2021/09/09 06:37:29;;;;;;;9.25;7.15;;;24.40;99.90;;;;;;5091620;28;20073;-70
2021/09/09 06:39:55;;;;;;;9.57;6.80;;;24.50;99.90;;;;;;5091814;28;20032;-69
2021/09/09 06:42:22;;;;;;;12.60;6.53;;;24.40;99.90;;;;;;5091783;28;20103;-69
2021/09/09 06:44:48;;;;;;;9.35;6.50;;;24.40;99.90;;;;;;5092011;28;20024;-69
2021/09/09 06:47:14;;;;;;;9.77;6.25;;;24.40;99.90;;;;;;5091709;28;20058;-69
2021/09/09 06:49:40;;;;;;;6.60;5.72;;;24.40;99.90;;;;;;5091966;28;20020;-69
2021/09/09 06:52:06;;;;;;;8.38;5.32;;;24.40;99.90;;;;;;5092190;28;20040;-70
2021/09/09 06:54:32;;;;;;;7.15;5.65;;;24.40;99.90;;;;;;5092158;28;20048;-69
2021/09/09 06:56:58;;;;;;;7.72;6.18;;;24.40;99.90;;;;;;5091837;28;20020;-69
2021/09/09 06:59:24;;;;;;;7.63;5.50;;;24.40;99.90;;;;;;5091545;28;20087;-69
2021/09/09 07:01:49;;;;;;;8.63;5.38;;;24.40;99.90;;;;;;5091771;28;20016;-69
2021/09/09 07:04:15;;;;;;;7.15;5.38;;;24.40;99.90;;;;;;5091513;28;20099;-70
2021/09/09 07:06:40;;;;;;;6.93;5.20;;;24.40;99.90;;;;;;5091867;28;20023;-69
2021/09/09 07:09:06;;;;;;;5.70;4.88;;;24.40;99.90;;;;;;5092054;28;20016;-69
2021/09/09 07:11:32;;;;;;;7.45;5.00;;;24.40;99.90;;;;;;5091919;28;20138;-69
2021/09/09 07:13:57;;;;;;;6.70;5.15;;;24.40;99.90;;;;;;5091656;28;20089;-69
2021/09/09 07:16:23;;;;;;;6.15;5.18;;;24.40;99.90;;;;;;5091480;28;20017;-69
2021/09/09 07:18:48;;;;;;;6.00;5.00;;;24.40;99.90;;;;;;5073393;28;20028;-69
2021/09/09 07:21:14;;;;;;;6.45;5.20;;;24.40;99.90;;;;;;5091453;28;20020;-69
2021/09/09 07:23:40;;;;;;;6.38;4.85;;;24.40;99.90;;;;;;5091630;28;20028;-69
2021/09/09 07:26:06;;;;;;;6.60;5.10;;;24.40;99.90;;;;;;5091882;28;20483;-69
2021/09/09 07:28:32;;;;;;;7.30;5.10;;;24.40;99.90;;;;;;5091739;28;20028;-69
2021/09/09 07:30:57;;;;;;;10.15;5.22;;;24.40;99.90;;;;;;5091491;28;20028;-69
2021/09/09 07:33:23;;;;;;;7.07;4.95;;;24.30;99.90;;;;;;5091138;28;20039;-69
2021/09/09 07:35:48;;;;;;;7.30;4.70;;;24.40;99.90;;;;;;5073299;28;20433;-69
2021/09/09 07:38:14;;;;;;;7.13;4.97;;;24.40;99.90;;;;;;5093970;28;20472;-69
2021/09/09 07:40:40;;;;;;;6.60;4.90;;;24.40;99.90;;;;;;5095489;28;20032;-69
2021/09/09 07:43:05;;;;;;;7.10;4.72;;;24.30;99.90;;;;;;5095819;28;20016;-69
2021/09/09 07:45:31;;;;;;;5.90;4.38;;;24.40;99.90;;;;;;5095694;28;20024;-69
2021/09/09 07:47:57;;;;;;;8.25;5.07;;;24.40;99.90;;;;;;5095373;28;20028;-70
2021/09/09 07:50:23;;;;;;;4.95;4.45;;;24.40;99.90;;;;;;5095007;28;20484;-69
2021/09/09 07:52:48;;;;;;;6.28;4.68;;;24.40;99.90;;;;;;5095237;28;20024;-69
2021/09/09 07:55:14;;;;;;;5.45;4.53;;;24.40;99.90;;;;;;5095066;28;20039;-69
2021/09/09 07:57:43;;;;;;;6.05;4.60;;;24.40;99.90;;;;;;5095289;28;20028;-70
2021/09/09 08:00:09;;;;;;;6.47;4.80;;;24.40;99.90;;;;;;5095067;28;20024;-69
2021/09/09 08:02:35;;;;;;;5.78;4.57;;;24.40;99.90;;;;;;5095255;28;20174;-69
2021/09/09 08:05:00;;;;;;;4.95;4.30;;;24.40;99.90;;;;;;5095131;28;20099;-70
2021/09/09 08:07:26;;;;;;;5.75;4.30;;;24.40;99.90;;;;;;5094872;28;20874;-69
2021/09/09 08:09:52;;;;;;;6.13;4.82;;;24.40;99.90;;;;;;5094916;28;20024;-69
2021/09/09 08:12:17;;;;;;;5.18;4.47;;;24.40;99.90;;;;;;5094714;28;20034;-69
2021/09/09 08:14:43;;;;;;;5.07;4.57;;;24.40;99.90;;;;;;5094875;28;20036;-69
2021/09/09 08:17:08;;;;;;;4.97;4.40;;;24.40;99.90;;;;;;5094625;28;20022;-69
2021/09/09 08:19:34;;;;;;;5.90;4.78;;;24.40;99.90;;;;;;5095085;28;20074;-70
2021/09/09 08:22:00;;;;;;;5.30;4.63;;;24.40;99.90;;;;;;5076539;28;20130;-70
2021/09/09 08:24:25;;;;;;;5.97;4.38;;;24.40;99.90;;;;;;5094433;28;20032;-70
2021/09/09 08:26:51;;;;;;;5.57;4.18;;;24.40;99.90;;;;;;5094665;28;20095;-70
2021/09/09 08:29:17;;;;;;;4.57;4.10;;;24.40;99.90;;;;;;5094522;28;20036;-70
2021/09/09 08:31:43;;;;;;;4.93;4.25;;;24.40;99.90;;;;;;5094501;28;20021;-69
2021/09/09 08:34:09;;;;;;;4.95;4.32;;;24.40;99.90;;;;;;5094267;28;20043;-70
2021/09/09 08:36:34;;;;;;;5.10;4.60;;;24.40;99.90;;;;;;5094792;28;20061;-69
2021/09/09 08:39:00;;;;;;;4.28;3.85;;;24.40;99.90;;;;;;5094502;28;20024;-70
2021/09/09 08:41:26;;;;;;;4.55;3.88;;;24.40;99.90;;;;;;5094243;28;20145;-70
2021/09/09 08:43:51;;;;;;;5.63;4.47;;;24.40;99.90;;;;;;5076154;28;20027;-70
2021/09/09 08:46:17;;;;;;;6.75;4.38;;;24.40;99.90;;;;;;5094231;28;20024;-70
2021/09/09 08:48:49;;;;;;;5.32;4.40;;;24.40;99.90;;;;;;5092941;28;20024;-70
2021/09/09 08:51:16;;;;;;;5.43;4.13;;;24.40;99.90;;;;;;5093812;28;20036;-70
2021/09/09 08:53:43;;;;;;;5.35;4.35;;;24.40;99.90;;;;;;5094171;28;20368;-70
2021/09/09 08:56:08;;;;;;;5.32;4.25;;;24.40;99.90;;;;;;5093927;28;20031;-70
2021/09/09 08:58:36;;;;;;;5.13;4.20;;;24.40;99.90;;;;;;5094449;28;20024;-70
2021/09/09 09:01:18;;;;;;;5.97;4.22;;;24.40;99.90;;;;;;5094276;28;20386;-70
2021/09/09 09:03:52;;;;;;;4.40;4.00;;;24.40;99.90;;;;;;5094257;28;20357;-70
2021/09/09 09:06:24;;;;;;;5.97;4.55;;;24.40;99.90;;;;;;5093767;28;20024;-70
2021/09/09 09:08:55;;;;;;;5.07;3.83;;;24.40;99.90;;;;;;5093900;28;20019;-70
2021/09/09 09:11:26;;;;;;;5.75;4.00;;;24.40;99.90;;;;;;5093540;28;20027;-70
2021/09/09 09:13:52;;;;;;;4.57;3.90;;;24.40;99.90;;;;;;5093711;28;20085;-70
2021/09/09 09:16:22;;;;;;;5.10;3.80;;;24.40;99.90;;;;;;5093722;28;20024;-70
2021/09/09 09:18:48;;;;;;;5.85;4.35;;;24.40;99.90;;;;;;5093636;28;20096;-70
2021/09/09 09:21:15;;;;;;;4.05;3.60;;;24.40;99.90;;;;;;5093459;28;20032;-70
2021/09/09 09:23:48;;;;;;;4.38;3.78;;;24.50;99.90;;;;;;5093589;28;20020;-70
2021/09/09 09:26:14;;;;;;;4.13;3.72;;;24.40;99.90;;;;;;5093308;28;20016;-70
2021/09/09 09:28:44;;;;;;;4.60;3.92;;;24.40;99.90;;;;;;5093466;28;20040;-70
2021/09/09 09:31:19;;;;;;;4.47;3.83;;;24.50;99.90;;;;;;5093264;28;20012;-70
2021/09/09 09:33:47;;;;;;;4.68;3.70;;;24.50;99.90;;;;;;5093353;28;20075;-70
2021/09/09 09:36:40;;;;;;;4.13;3.70;;;24.50;99.90;;;;;;5093155;28;20128;-70
2021/09/09 09:39:13;;;;;;;4.70;3.85;;;24.50;99.90;;;;;;5090381;28;20115;-70
2021/09/09 09:41:42;;;;;;;5.47;3.97;;;24.50;99.90;;;;;;5093248;28;20089;-70
2021/09/09 09:44:09;;;;;;;4.60;3.75;;;24.50;99.90;;;;;;5092875;28;20024;-70
2021/09/09 09:46:41;;;;;;;4.45;3.78;;;24.50;99.90;;;;;;5093615;28;20028;-70
2021/09/09 09:49:26;;;;;;;4.47;3.80;;;24.50;99.90;;;;;;5092852;28;20076;-70
2021/09/09 09:51:54;;;;;;;4.47;3.60;;;24.50;99.90;;;;;;5092816;28;20115;-70
2021/09/09 09:54:21;;;;;;;4.75;3.55;;;24.50;99.90;;;;;;5092713;28;20123;-70
2021/09/09 09:56:48;;;;;;;4.53;3.83;;;24.60;99.90;;;;;;5092879;28;20028;-70
2021/09/09 09:59:14;;;;;;;4.03;3.63;;;24.50;99.90;;;;;;5092397;28;20452;-70
2021/09/09 10:01:41;;;;;;;3.53;3.03;;;24.50;99.90;;;;;;5092567;28;20028;-70
2021/09/09 10:04:09;;;;;;;5.95;3.80;;;24.60;99.90;;;;;;5092962;28;20168;-70
2021/09/09 10:06:35;;;;;;;4.80;3.80;;;24.60;99.90;;;;;;5093063;28;20024;-70
2021/09/09 10:09:02;;;;;;;3.70;3.22;;;24.60;99.90;;;;;;5092790;28;20472;-71
2021/09/09 10:11:28;;;;;;;5.18;3.83;;;24.60;99.90;;;;;;5092460;28;20150;-70
2021/09/09 10:13:56;;;;;;;4.10;3.70;;;24.60;99.90;;;;;;5092436;28;20500;-70
2021/09/09 10:16:26;;;;;;;4.13;3.38;;;24.60;99.90;;;;;;5092226;28;20028;-70
2021/09/09 10:18:52;;;;;;;4.20;3.22;;;24.60;99.90;;;;;;5092686;28;20349;-70
2021/09/09 10:21:42;;;;;;;3.55;3.25;;;24.60;99.90;;;;;;5092335;28;20070;-71
2021/09/09 10:24:17;;;;;;;4.07;3.53;;;24.60;99.90;;;;;;5092172;28;20024;-70
2021/09/09 10:26:44;;;;;;;5.45;3.80;;;24.60;99.90;;;;;;5092505;28;20045;-70
2021/09/09 10:29:43;;;;;;;3.80;3.40;;;24.60;99.90;;;;;;5092088;28;20031;-70
2021/09/09 10:32:29;;;;;;;3.85;3.20;;;24.60;99.90;;;;;;5092038;28;20418;-71
2021/09/09 10:35:16;;;;;;;4.45;3.75;;;24.70;99.90;;;;;;5092178;28;20028;-70
2021/09/09 10:37:42;;;;;;;4.10;3.47;;;24.70;99.90;;;;;;5092426;28;20047;-70
2021/09/09 10:40:10;;;;;;;4.30;3.30;;;24.70;99.90;;;;;;5091890;28;20078;-70
2021/09/09 10:42:40;;;;;;;5.57;3.60;;;24.70;99.90;;;;;;5092827;28;20029;-70
2021/09/09 10:45:32;;;;;;;3.95;3.15;;;24.70;99.90;;;;;;5092328;28;20468;-71
2021/09/09 10:47:57;;;;;;;3.92;3.05;;;24.70;99.90;;;;;;5091880;28;20028;-71
2021/09/09 10:50:24;;;;;;;3.88;3.10;;;24.70;99.90;;;;;;5091689;28;20039;-70
2021/09/09 10:53:04;;;;;;;5.10;3.33;;;24.70;99.90;;;;;;5092307;28;20429;-70
2021/09/09 10:55:31;;;;;;;4.47;3.22;;;24.70;99.90;;;;;;5091905;28;20034;-71
2021/09/09 10:58:14;;;;;;;4.18;3.58;;;24.70;99.90;;;;;;5091998;28;20032;-71
2021/09/09 11:00:53;;;;;;;4.13;3.33;;;24.70;99.90;;;;;;5091920;28;20031;-71
2021/09/09 11:03:46;;;;;;;4.53;3.38;;;24.70;99.90;;;;;;5091455;28;20543;-70
2021/09/09 11:06:12;;;;;;;5.15;3.17;;;24.80;99.90;;;;;;5091473;28;20059;-70
2021/09/09 11:08:40;;;;;;;4.13;3.10;;;24.80;99.90;;;;;;5073593;28;20425;-70
2021/09/09 11:11:08;;;;;;;5.18;3.65;;;24.80;99.90;;;;;;5091895;28;20028;-71
2021/09/09 11:13:39;;;;;;;3.97;3.30;;;24.80;99.90;;;;;;5091523;28;20049;-70
2021/09/09 11:16:19;;;;;;;3.50;3.20;;;24.80;99.90;;;;;;5092229;28;20104;-70
2021/09/09 11:18:45;;;;;;;3.55;3.10;;;24.80;99.90;;;;;;5091699;28;20028;-71
2021/09/09 11:21:15;;;;;;;4.05;3.65;;;24.90;99.90;;;;;;5091342;28;20043;-71
2021/09/09 11:23:41;;;;;;;3.47;3.17;;;24.80;99.90;;;;;;5091652;28;20379;-71
2021/09/09 11:26:13;;;;;;;3.35;3.05;;;24.90;99.90;;;;;;5091556;28;20024;-72
2021/09/09 11:28:40;;;;;;;3.10;2.73;;;24.90;99.90;;;;;;5091600;28;20016;-72
2021/09/09 11:31:10;;;;;;;3.28;2.83;;;24.90;99.90;;;;;;5091870;28;20027;-70
2021/09/09 11:33:50;;;;;;;4.85;3.10;;;24.90;99.90;;;;;;5091774;28;20107;-70
2021/09/09 11:36:16;;;;;;;3.20;2.85;;;24.90;99.90;;;;;;5091374;28;20100;-70
2021/09/09 11:38:41;;;;;;;3.13;2.67;;;24.90;99.90;;;;;;5091496;28;20469;-70
2021/09/09 11:41:12;;;;;;;3.63;2.88;;;25.00;99.90;;;;;;5091222;28;20024;-70
2021/09/09 11:43:40;;;;;;;3.22;2.90;;;25.00;99.90;;;;;;5091398;28;20016;-70
2021/09/09 11:46:06;;;;;;;4.03;2.70;;;25.00;99.90;;;;;;5091723;28;20031;-70
2021/09/09 11:48:31;;;;;;;3.13;2.80;;;25.00;99.90;;;;;;5091832;28;20016;-70
2021/09/09 11:50:57;;;;;;;3.47;2.90;;;25.00;99.90;;;;;;5091272;28;20047;-70
2021/09/09 11:53:24;;;;;;;4.13;2.97;;;25.00;99.90;;;;;;5091048;28;20031;-70
2021/09/09 11:55:51;;;;;;;3.22;2.92;;;25.10;99.90;;;;;;5073283;28;20086;-70
2021/09/09 11:58:31;;;;;;;3.30;2.63;;;25.10;99.90;;;;;;5090916;28;20036;-70
2021/09/09 12:00:59;;;;;;;3.47;2.72;;;25.10;99.90;;;;;;5091259;28;20097;-70
2021/09/09 12:03:25;;;;;;;3.90;2.90;;;25.10;99.90;;;;;;5091024;28;20082;-70
2021/09/09 12:05:52;;;;;;;3.20;2.90;;;25.10;99.90;;;;;;5091355;28;20024;-70
2021/09/09 12:08:18;;;;;;;3.05;2.75;;;25.10;99.90;;;;;;5091036;28;20039;-70
2021/09/09 12:10:45;;;;;;;3.28;2.88;;;25.10;99.90;;;;;;5091261;28;20027;-70
2021/09/09 12:13:11;;;;;;;3.05;2.72;;;25.10;99.90;;;;;;5090870;28;20028;-70
2021/09/09 12:15:37;;;;;;;2.78;2.45;;;25.10;99.90;;;;;;5091213;28;20042;-69
2021/09/09 12:18:10;;;;;;;3.00;2.65;;;25.10;99.90;;;;;;5091452;28;20076;-70
2021/09/09 12:20:38;;;;;;;3.22;2.83;;;25.20;99.90;;;;;;5091504;28;20055;-70
2021/09/09 12:23:03;;;;;;;3.38;2.80;;;25.20;99.90;;;;;;5092015;28;20088;-70
2021/09/09 12:25:37;;;;;;;2.90;2.60;;;25.20;99.90;;;;;;5094694;28;20020;-70
2021/09/09 12:28:07;;;;;;;3.15;2.53;;;25.20;99.90;;;;;;5095049;28;20024;-70
2021/09/09 12:30:36;;;;;;;3.00;2.65;;;25.20;99.90;;;;;;5095019;28;20052;-70
2021/09/09 12:33:18;;;;;;;2.85;2.50;;;25.20;99.90;;;;;;5094842;28;20027;-70
2021/09/09 12:36:10;;;;;;;3.72;2.35;;;25.30;99.90;;;;;;5094483;28;20088;-72
2021/09/09 12:39:08;;;;;;;3.00;2.70;;;25.30;99.90;;;;;;5094799;28;20016;-70
2021/09/09 12:41:33;;;;;;;2.50;2.30;;;25.30;99.90;;;;;;5077309;28;20036;-70
2021/09/09 12:43:59;;;;;;;3.05;2.55;;;25.30;99.90;;;;;;5094405;28;20095;-70
2021/09/09 12:46:25;;;;;;;2.83;2.53;;;25.30;99.90;;;;;;5094207;28;20063;-70